Time;durP1;ratioP1;P1;durP2;ratioP2;P2;SDS_P1;SDS_P2;PMS_P1;PMS_P2;Temp;Humidity;BMP_temperature;BMP_pressure;BME280_temperature;BME280_humidity;BME280_pressure;Samples;Min_cycle;Max_cycle;Signal;HPM_P1;HPM_P2
2021/04/03 00:00:40;;;;;;;20.92;7.13;;;5.50;99.90;;;;;;4966853;28;20214;-92
2021/04/03 00:03:09;;;;;;;24.20;7.13;;;5.70;99.90;;;;;;4975314;28;20219;-92
2021/04/03 00:05:36;;;;;;;16.42;7.75;;;6.10;99.90;;;;;;4978975;28;20187;-92
2021/04/03 00:08:05;;;;;;;12.35;5.50;;;5.50;99.90;;;;;;4978672;28;20269;-92
2021/04/03 00:10:36;;;;;;;14.13;5.70;;;5.50;99.90;;;;;;4965745;28;20225;-92
2021/04/03 00:13:02;;;;;;;22.00;6.00;;;5.90;99.90;;;;;;4968190;28;20278;-92
2021/04/03 00:15:29;;;;;;;19.65;5.45;;;5.90;99.90;;;;;;4965561;28;20188;-92
2021/04/03 00:17:55;;;;;;;13.40;5.57;;;5.40;99.90;;;;;;4968386;28;20277;-91
2021/04/03 00:20:25;;;;;;;15.55;7.15;;;5.50;99.90;;;;;;4967374;28;20298;-91
2021/04/03 00:22:51;;;;;;;11.95;7.65;;;5.60;99.90;;;;;;4974585;28;20241;-92
2021/04/03 00:25:18;;;;;;;12.73;8.25;;;6.40;99.90;;;;;;4967884;28;20275;-92
2021/04/03 00:27:45;;;;;;;24.25;8.27;;;7.40;99.90;;;;;;4972681;28;20277;-91
2021/04/03 00:30:17;;;;;;;12.90;7.10;;;5.50;99.90;;;;;;4968418;28;20228;-92
2021/04/03 00:32:44;;;;;;;15.02;7.72;;;5.40;99.90;;;;;;4979405;28;20697;-91
2021/04/03 00:35:12;;;;;;;16.23;8.52;;;5.40;99.90;;;;;;4970415;28;20224;-91
2021/04/03 00:37:38;;;;;;;20.23;9.88;;;5.50;99.90;;;;;;4979328;28;20278;-91
2021/04/03 00:40:09;;;;;;;20.83;8.75;;;6.60;99.90;;;;;;4971679;28;20255;-91
2021/04/03 00:42:39;;;;;;;13.32;6.45;;;5.50;99.90;;;;;;4978016;28;20737;-91
2021/04/03 00:45:08;;;;;;;19.92;7.22;;;5.40;99.90;;;;;;4970315;28;20190;-91
2021/04/03 00:47:35;;;;;;;10.52;5.60;;;5.40;99.90;;;;;;4979471;28;20635;-92
2021/04/03 00:50:01;;;;;;;13.55;6.25;;;5.50;99.90;;;;;;4982286;28;20698;-92
2021/04/03 00:52:28;;;;;;;17.63;8.00;;;6.80;99.90;;;;;;4979377;28;20219;-91
2021/04/03 00:54:55;;;;;;;12.10;4.53;;;5.40;99.90;;;;;;4994344;28;20206;-92
2021/04/03 00:57:21;;;;;;;13.57;5.82;;;6.10;99.90;;;;;;4964993;28;20250;-92
2021/04/03 00:59:49;;;;;;;18.13;5.38;;;5.60;99.90;;;;;;4967584;28;20192;-91
2021/04/03 01:02:15;;;;;;;16.20;5.90;;;7.10;99.90;;;;;;4959879;28;20211;-91
2021/04/03 01:04:42;;;;;;;15.90;4.85;;;5.30;99.90;;;;;;4970802;28;20222;-91
2021/04/03 01:07:09;;;;;;;14.35;5.70;;;5.40;99.90;;;;;;4978682;28;20635;-91
2021/04/03 01:09:37;;;;;;;24.08;5.47;;;5.30;99.90;;;;;;4971424;28;20245;-91
2021/04/03 01:12:16;;;;;;;11.52;6.15;;;5.20;99.90;;;;;;4983565;28;20226;-91
2021/04/03 01:14:54;;;;;;;12.63;4.85;;;5.30;99.90;;;;;;4973007;28;20196;-92
2021/04/03 01:17:27;;;;;;;9.50;3.15;;;6.00;99.90;;;;;;4980839;28;20340;-92
2021/04/03 01:20:21;;;;;;;6.90;3.72;;;4.80;99.90;;;;;;4973197;28;20217;-91
2021/04/03 01:23:20;;;;;;;19.95;5.30;;;5.90;99.90;;;;;;4981643;28;20682;-91
2021/04/03 01:25:57;;;;;;;18.73;6.05;;;5.30;99.90;;;;;;4981512;28;20286;-92
2021/04/03 01:28:54;;;;;;;19.48;4.70;;;5.20;99.90;;;;;;4981426;28;20617;-91
2021/04/03 01:31:23;;;;;;;12.65;4.72;;;5.30;99.90;;;;;;4988134;28;20206;-90
2021/04/03 01:33:54;;;;;;;28.80;5.28;;;6.10;99.90;;;;;;4978554;28;20206;-91
2021/04/03 01:36:22;;;;;;;7.72;3.85;;;5.20;99.90;;;;;;4977952;28;20289;-91
2021/04/03 01:38:54;;;;;;;14.63;4.82;;;5.70;99.90;;;;;;4977484;28;20694;-91
2021/04/03 01:41:23;;;;;;;12.35;4.22;;;6.40;99.90;;;;;;4977985;28;20218;-90
2021/04/03 01:43:53;;;;;;;12.13;3.45;;;5.20;99.90;;;;;;4977410;28;20241;-91
2021/04/03 01:46:24;;;;;;;12.05;4.90;;;6.40;99.90;;;;;;4978443;28;20222;-91
2021/04/03 01:48:51;;;;;;;14.50;4.45;;;5.80;99.90;;;;;;4980232;28;20216;-90
2021/04/03 01:51:19;;;;;;;9.25;5.43;;;5.10;99.90;;;;;;4983345;28;20194;-90
2021/04/03 01:53:47;;;;;;;11.48;4.45;;;5.20;99.90;;;;;;4984195;28;20386;-92
2021/04/03 01:56:16;;;;;;;15.55;6.25;;;5.10;99.90;;;;;;4990445;28;20230;-92
2021/04/03 01:58:45;;;;;;;15.75;4.72;;;5.10;99.90;;;;;;4988493;28;20225;-92
2021/04/03 02:01:12;;;;;;;20.75;5.50;;;5.10;99.90;;;;;;4980205;28;20218;-92
2021/04/03 02:03:39;;;;;;;17.27;5.10;;;5.80;99.90;;;;;;4975351;28;20239;-92
2021/04/03 02:06:06;;;;;;;17.45;4.78;;;5.70;99.90;;;;;;4998996;28;20361;-92
2021/04/03 02:08:33;;;;;;;12.93;4.50;;;5.00;99.90;;;;;;4994032;28;20658;-92
2021/04/03 02:11:02;;;;;;;8.13;4.35;;;5.10;99.90;;;;;;4986119;28;20206;-91
2021/04/03 02:13:31;;;;;;;14.27;4.07;;;5.50;99.90;;;;;;4999424;28;20205;-92
2021/04/03 02:16:00;;;;;;;11.23;3.67;;;5.30;99.90;;;;;;4991118;28;20199;-92
2021/04/03 02:18:29;;;;;;;13.63;4.60;;;5.10;99.90;;;;;;5000200;28;20230;-91
2021/04/03 02:20:58;;;;;;;14.45;4.72;;;5.00;99.90;;;;;;4980502;28;20217;-90
2021/04/03 02:23:27;;;;;;;18.00;4.03;;;5.00;99.90;;;;;;4964880;28;20291;-91
2021/04/03 02:25:55;;;;;;;13.48;4.65;;;5.00;99.90;;;;;;4976728;28;20290;-92
2021/04/03 02:28:24;;;;;;;10.30;3.72;;;5.40;99.90;;;;;;4977002;28;20190;-92
2021/04/03 02:30:51;;;;;;;12.93;3.60;;;6.90;99.90;;;;;;4962302;28;20210;-92
2021/04/03 02:33:18;;;;;;;45.90;5.72;;;5.00;99.90;;;;;;4961781;28;20272;-92
2021/04/03 02:35:45;;;;;;;15.05;4.50;;;6.40;99.90;;;;;;4976452;28;20302;-92
2021/04/03 02:38:13;;;;;;;10.55;3.42;;;5.00;99.90;;;;;;4976207;28;20191;-91
2021/04/03 02:40:41;;;;;;;14.07;5.80;;;5.90;99.90;;;;;;4963416;28;20241;-91
2021/04/03 02:43:13;;;;;;;22.23;4.50;;;5.00;99.90;;;;;;4972689;28;20221;-92
2021/04/03 02:45:50;;;;;;;20.42;5.03;;;6.30;99.90;;;;;;4975326;28;20278;-92
2021/04/03 02:48:20;;;;;;;9.90;4.03;;;6.50;99.90;;;;;;4977688;28;20581;-92
2021/04/03 02:50:50;;;;;;;14.95;3.88;;;6.40;99.90;;;;;;4975824;28;20282;-93
2021/04/03 02:53:21;;;;;;;12.85;4.72;;;7.20;99.90;;;;;;4978894;28;20210;-93
2021/04/03 02:55:49;;;;;;;16.48;4.40;;;6.10;99.90;;;;;;4978304;28;20531;-91
2021/04/03 02:58:19;;;;;;;13.43;3.97;;;6.70;99.90;;;;;;4982031;28;20278;-94
2021/04/03 03:00:47;;;;;;;17.23;4.60;;;4.90;99.90;;;;;;4984378;28;20186;-92
2021/04/03 03:03:14;;;;;;;16.17;5.43;;;6.10;99.90;;;;;;4978639;28;20702;-91
2021/04/03 03:05:44;;;;;;;11.80;4.65;;;4.50;99.90;;;;;;4977022;28;20186;-92
2021/04/03 03:08:13;;;;;;;12.65;3.80;;;4.90;99.90;;;;;;4977790;28;20221;-93
2021/04/03 03:10:41;;;;;;;13.05;5.07;;;4.90;99.90;;;;;;4974831;28;20190;-93
2021/04/03 03:13:08;;;;;;;34.83;4.88;;;5.00;99.90;;;;;;4976810;28;20261;-92
2021/04/03 03:15:35;;;;;;;10.50;4.88;;;5.00;99.90;;;;;;4975480;28;20699;-92
2021/04/03 03:18:03;;;;;;;11.30;4.68;;;5.50;99.90;;;;;;4976448;28;20214;-92
2021/04/03 03:20:30;;;;;;;9.55;4.38;;;5.00;99.90;;;;;;4976509;28;20191;-92
2021/04/03 03:22:58;;;;;;;13.32;5.25;;;4.90;99.90;;;;;;4976139;28;20290;-92
2021/04/03 03:25:25;;;;;;;8.30;4.10;;;6.80;99.90;;;;;;4980874;28;20209;-92
2021/04/03 03:27:54;;;;;;;8.65;3.53;;;4.90;99.90;;;;;;4975442;28;20290;-92
2021/04/03 03:30:24;;;;;;;13.55;4.05;;;4.70;99.90;;;;;;4976625;28;20191;-92
2021/04/03 03:32:51;;;;;;;18.77;4.18;;;4.90;99.90;;;;;;4975368;28;20229;-92
2021/04/03 03:35:19;;;;;;;7.90;2.92;;;5.80;99.90;;;;;;4976553;28;20221;-92
2021/04/03 03:37:47;;;;;;;12.90;4.32;;;4.70;99.90;;;;;;4976534;28;20650;-92
2021/04/03 03:40:16;;;;;;;14.07;3.35;;;5.90;99.90;;;;;;4978370;28;20207;-93
2021/04/03 03:42:43;;;;;;;14.20;4.25;;;4.90;99.90;;;;;;4980145;28;20217;-92
2021/04/03 03:45:14;;;;;;;17.98;4.65;;;5.40;99.90;;;;;;4979930;28;20214;-92
2021/04/03 03:47:41;;;;;;;17.50;4.65;;;4.90;99.90;;;;;;4980441;28;20215;-92
2021/04/03 03:50:11;;;;;;;13.82;3.95;;;4.80;99.90;;;;;;4968752;28;20643;-92
2021/04/03 03:52:37;;;;;;;16.10;4.82;;;4.90;99.90;;;;;;4979970;28;20217;-92
2021/04/03 03:55:05;;;;;;;14.20;4.68;;;4.80;99.90;;;;;;4967063;28;20662;-92
2021/04/03 03:57:31;;;;;;;10.95;4.53;;;4.90;99.90;;;;;;4975476;28;20273;-92
2021/04/03 03:59:58;;;;;;;11.35;4.55;;;5.70;99.90;;;;;;4965067;28;20199;-92
2021/04/03 04:02:25;;;;;;;11.63;3.95;;;5.30;99.90;;;;;;4968650;28;20279;-92
2021/04/03 04:04:52;;;;;;;17.63;4.18;;;5.70;99.90;;;;;;4975413;28;20285;-92
2021/04/03 04:07:18;;;;;;;12.63;3.58;;;4.80;99.90;;;;;;4979833;28;20186;-92
2021/04/03 04:09:45;;;;;;;11.63;6.40;;;5.20;99.90;;;;;;4979937;28;20628;-93
2021/04/03 04:12:12;;;;;;;12.60;4.18;;;5.20;99.90;;;;;;4975748;28;20305;-92
2021/04/03 04:14:38;;;;;;;12.65;5.30;;;4.80;99.90;;;;;;4979656;28;20215;-92
2021/04/03 04:17:05;;;;;;;12.00;4.90;;;5.30;99.90;;;;;;4972585;28;20218;-92
2021/04/03 04:19:32;;;;;;;10.50;3.65;;;4.80;99.90;;;;;;4960242;28;20243;-93
2021/04/03 04:22:01;;;;;;;11.82;4.45;;;4.70;99.90;;;;;;4967298;28;20194;-92
2021/04/03 04:24:28;;;;;;;10.80;4.55;;;4.80;99.90;;;;;;4983114;28;20229;-92
2021/04/03 04:26:54;;;;;;;15.23;3.80;;;4.80;99.90;;;;;;4979732;28;20274;-91
2021/04/03 04:29:21;;;;;;;13.18;4.68;;;4.80;99.90;;;;;;4980154;28;20273;-91
2021/04/03 04:31:47;;;;;;;13.02;5.28;;;4.70;99.90;;;;;;4977020;28;20187;-91
2021/04/03 04:34:14;;;;;;;13.63;5.63;;;4.60;99.90;;;;;;4962414;28;20224;-91
2021/04/03 04:36:41;;;;;;;17.77;5.82;;;4.80;99.90;;;;;;4980922;28;20249;-91
2021/04/03 04:39:08;;;;;;;14.90;4.03;;;4.60;99.90;;;;;;4985787;28;20252;-91
2021/04/03 04:41:35;;;;;;;14.50;4.90;;;4.50;99.90;;;;;;4997444;28;20182;-91
2021/04/03 04:44:02;;;;;;;11.95;4.60;;;4.50;99.90;;;;;;4977672;28;20236;-90
2021/04/03 04:46:28;;;;;;;23.10;6.32;;;5.30;99.90;;;;;;4998616;28;20218;-91
2021/04/03 04:48:55;;;;;;;12.48;6.15;;;5.50;99.90;;;;;;4996011;28;20206;-91
2021/04/03 04:51:21;;;;;;;13.60;4.60;;;4.50;99.90;;;;;;4992732;28;20246;-91
2021/04/03 04:53:49;;;;;;;12.70;4.47;;;5.20;99.90;;;;;;4988450;28;20269;-91
2021/04/03 04:56:16;;;;;;;24.30;5.30;;;4.00;99.90;;;;;;4977372;28;20222;-90
2021/04/03 04:58:42;;;;;;;20.05;5.05;;;4.10;99.90;;;;;;4981863;28;20200;-89
2021/04/03 05:01:08;;;;;;;12.35;6.00;;;4.00;99.90;;;;;;4987659;28;20209;-88
2021/04/03 05:06:16;;;;;;;19.52;5.10;;;5.40;99.90;;;;;;4980748;23;20225;-89
2021/04/03 05:08:43;;;;;;;19.10;5.00;;;3.80;99.90;;;;;;4960472;28;20275;-91
2021/04/03 05:11:10;;;;;;;10.55;5.13;;;3.70;99.90;;;;;;4951619;28;20222;-90
2021/04/03 05:13:36;;;;;;;16.23;5.97;;;4.30;99.90;;;;;;4950663;29;20189;-89
2021/04/03 05:16:03;;;;;;;22.27;5.22;;;3.70;99.90;;;;;;4958943;28;20309;-89
2021/04/03 05:18:29;;;;;;;12.48;5.30;;;3.50;99.90;;;;;;4960391;28;20691;-88
2021/04/03 05:20:55;;;;;;;14.73;4.60;;;3.60;99.90;;;;;;4965510;28;20201;-88
2021/04/03 05:23:22;;;;;;;20.30;5.82;;;3.50;99.90;;;;;;4974273;28;20242;-89
2021/04/03 05:25:48;;;;;;;16.77;4.85;;;4.20;99.90;;;;;;4975321;28;20213;-88
2021/04/03 05:28:15;;;;;;;21.73;6.00;;;3.40;99.90;;;;;;4974550;29;20263;-87
2021/04/03 05:30:42;;;;;;;21.00;5.07;;;3.50;99.90;;;;;;4968437;28;20228;-88
2021/04/03 05:33:09;;;;;;;16.00;5.60;;;3.40;99.90;;;;;;4945451;29;20209;-89
2021/04/03 05:35:35;;;;;;;12.30;5.30;;;3.30;99.90;;;;;;4943335;29;20226;-88
2021/04/03 05:38:01;;;;;;;13.77;5.00;;;3.20;99.90;;;;;;4960355;28;20207;-89
2021/04/03 05:40:28;;;;;;;15.65;4.53;;;3.20;99.90;;;;;;4950004;28;20197;-88
2021/04/03 05:42:55;;;;;;;25.55;5.78;;;4.30;99.90;;;;;;4958344;28;20209;-88
2021/04/03 05:45:27;;;;;;;17.20;6.13;;;3.10;99.90;;;;;;4951503;28;20200;-88
2021/04/03 05:47:54;;;;;;;16.88;6.95;;;3.20;99.90;;;;;;4957467;29;20261;-89
2021/04/03 05:50:21;;;;;;;19.27;7.20;;;4.60;99.90;;;;;;4951400;28;20695;-87
2021/04/03 05:52:48;;;;;;;16.10;4.88;;;3.60;99.90;;;;;;4959200;29;20292;-87
2021/04/03 05:55:14;;;;;;;11.32;6.32;;;4.90;99.90;;;;;;4959533;28;20677;-89
2021/04/03 05:57:41;;;;;;;12.82;5.20;;;3.10;99.90;;;;;;4961641;28;20272;-89
2021/04/03 06:00:09;;;;;;;14.18;5.40;;;3.60;99.90;;;;;;4956545;28;20271;-90
2021/04/03 06:02:38;;;;;;;25.83;5.90;;;3.40;99.90;;;;;;4956568;28;20228;-88
2021/04/03 06:05:05;;;;;;;17.35;5.68;;;4.60;99.90;;;;;;4955334;28;20318;-89
2021/04/03 06:07:32;;;;;;;13.23;5.40;;;3.60;99.90;;;;;;4956498;29;20195;-89
2021/04/03 06:09:59;;;;;;;13.60;5.60;;;4.30;99.90;;;;;;4956254;28;20202;-88
2021/04/03 06:12:38;;;;;;;11.70;5.13;;;3.60;99.90;;;;;;4937390;28;20256;-89
2021/04/03 06:15:06;;;;;;;19.50;5.95;;;3.80;99.90;;;;;;4895894;28;20755;-89
2021/04/03 06:17:33;;;;;;;21.65;6.88;;;3.90;99.90;;;;;;4937238;29;20217;-88
2021/04/03 06:20:00;;;;;;;22.85;5.90;;;4.10;99.90;;;;;;4936066;29;20204;-88
2021/04/03 06:22:39;;;;;;;20.65;8.50;;;4.20;99.90;;;;;;4928028;29;20299;-88
2021/04/03 06:25:07;;;;;;;15.73;6.05;;;4.30;99.90;;;;;;4933117;29;20226;-88
2021/04/03 06:27:33;;;;;;;29.98;9.57;;;4.40;99.90;;;;;;4926385;29;20207;-85
2021/04/03 06:30:13;;;;;;;28.42;6.00;;;4.50;99.90;;;;;;4935760;29;20192;-88
2021/04/03 06:32:39;;;;;;;16.25;5.88;;;4.50;99.90;;;;;;4921699;29;20203;-87
2021/04/03 06:35:07;;;;;;;15.48;5.90;;;4.50;99.90;;;;;;4932855;29;20199;-86
2021/04/03 06:37:35;;;;;;;17.27;6.65;;;4.50;99.90;;;;;;4936903;29;20251;-85
2021/04/03 06:40:03;;;;;;;20.13;6.10;;;4.50;99.90;;;;;;4936601;29;20195;-87
2021/04/03 06:42:45;;;;;;;15.15;7.15;;;4.50;99.90;;;;;;4936644;29;20239;-86
2021/04/03 06:45:26;;;;;;;22.20;5.95;;;4.50;99.90;;;;;;4937842;29;20671;-86
2021/04/03 06:47:54;;;;;;;14.45;7.18;;;4.60;99.90;;;;;;4938276;29;20247;-86
2021/04/03 06:50:23;;;;;;;25.08;6.35;;;4.60;99.90;;;;;;4936786;29;20192;-88
2021/04/03 06:52:50;;;;;;;18.25;6.43;;;4.60;99.90;;;;;;4936172;29;20214;-85
2021/04/03 06:55:18;;;;;;;14.10;6.43;;;4.60;99.90;;;;;;4935393;29;20289;-86
2021/04/03 06:57:46;;;;;;;17.08;7.40;;;4.60;99.90;;;;;;4936107;29;20203;-88
2021/04/03 07:00:15;;;;;;;26.95;9.55;;;4.70;99.90;;;;;;4935615;29;20224;-84
2021/04/03 07:02:50;;;;;;;18.60;4.65;;;4.80;99.90;;;;;;4937778;29;20248;-85
2021/04/03 07:05:19;;;;;;;20.42;6.30;;;5.00;99.90;;;;;;4936984;29;20226;-85
2021/04/03 07:07:46;;;;;;;19.05;6.47;;;5.20;99.90;;;;;;4939424;29;20196;-85
2021/04/03 07:10:14;;;;;;;14.23;5.45;;;5.40;99.90;;;;;;4951568;29;20199;-85
2021/04/03 07:12:41;;;;;;;22.98;6.90;;;5.70;99.90;;;;;;4950718;29;20192;-85
2021/04/03 07:15:08;;;;;;;16.10;6.25;;;5.70;99.90;;;;;;4952650;29;20248;-84
2021/04/03 07:17:39;;;;;;;13.80;5.07;;;5.80;99.90;;;;;;4952498;29;20288;-85
2021/04/03 07:20:10;;;;;;;16.00;7.63;;;5.90;99.90;;;;;;4949210;29;20188;-85
2021/04/03 07:22:36;;;;;;;24.38;6.88;;;5.90;99.90;;;;;;4947844;29;20239;-84
2021/04/03 07:25:07;;;;;;;17.25;5.80;;;6.00;99.90;;;;;;4944177;29;20200;-85
2021/04/03 07:27:36;;;;;;;28.20;6.30;;;6.10;99.90;;;;;;4936469;29;20196;-85
2021/04/03 07:30:04;;;;;;;18.10;6.25;;;6.10;99.90;;;;;;4935283;29;20207;-85
2021/04/03 07:32:32;;;;;;;15.52;5.82;;;6.20;99.90;;;;;;4935961;29;20277;-85
2021/04/03 07:34:58;;;;;;;10.73;5.80;;;6.40;99.90;;;;;;4934941;29;20243;-85
2021/04/03 07:37:32;;;;;;;15.20;5.13;;;6.70;99.90;;;;;;4936181;29;20203;-84
2021/04/03 07:39:58;;;;;;;25.20;6.22;;;6.70;99.90;;;;;;4935738;29;20192;-84
2021/04/03 07:42:36;;;;;;;11.45;4.88;;;6.70;99.90;;;;;;4930096;29;20291;-84
2021/04/03 07:45:05;;;;;;;10.60;5.10;;;6.80;99.90;;;;;;4935853;29;20199;-84
2021/04/03 07:47:46;;;;;;;15.82;4.88;;;6.80;99.90;;;;;;4934489;29;20188;-84
2021/04/03 07:50:12;;;;;;;17.85;5.03;;;6.80;99.90;;;;;;4939488;29;20188;-84
2021/04/03 07:52:55;;;;;;;25.35;6.30;;;6.90;99.90;;;;;;4935641;29;20200;-85
2021/04/03 07:55:36;;;;;;;21.10;8.85;;;7.10;99.90;;;;;;4936008;29;20192;-85
2021/04/03 07:58:26;;;;;;;15.18;5.95;;;7.10;99.90;;;;;;4933598;29;20270;-85
2021/04/03 08:00:53;;;;;;;13.73;5.57;;;7.10;99.90;;;;;;4935870;29;20607;-84
2021/04/03 08:03:23;;;;;;;12.98;5.80;;;7.00;99.90;;;;;;4935565;29;20243;-85
2021/04/03 08:05:50;;;;;;;11.80;5.25;;;7.00;99.90;;;;;;4935223;29;20295;-84
2021/04/03 08:08:19;;;;;;;17.65;5.90;;;6.90;99.90;;;;;;4936300;29;20196;-85
2021/04/03 08:10:46;;;;;;;13.13;5.53;;;6.70;99.90;;;;;;4935498;29;20199;-84
2021/04/03 08:13:13;;;;;;;13.75;6.05;;;6.70;99.90;;;;;;4936327;29;20245;-84
2021/04/03 08:15:43;;;;;;;12.30;5.60;;;6.70;99.90;;;;;;4935500;29;20193;-84
2021/04/03 08:18:10;;;;;;;15.70;5.97;;;6.90;99.90;;;;;;4936258;29;20204;-84
2021/04/03 08:20:37;;;;;;;15.65;7.50;;;7.10;99.90;;;;;;4936256;29;20224;-85
2021/04/03 08:23:05;;;;;;;16.75;8.57;;;7.30;99.90;;;;;;4936606;29;20198;-83
2021/04/03 08:25:32;;;;;;;17.70;7.80;;;7.50;99.90;;;;;;4936394;29;20191;-84
2021/04/03 08:28:00;;;;;;;13.40;6.90;;;7.60;99.90;;;;;;4939365;29;20660;-84
2021/04/03 08:30:31;;;;;;;21.67;9.07;;;7.80;99.90;;;;;;4938571;29;20189;-84
2021/04/03 08:33:09;;;;;;;17.55;7.45;;;7.60;99.90;;;;;;4937499;29;20557;-86
2021/04/03 08:35:38;;;;;;;22.17;7.53;;;7.70;99.90;;;;;;4927779;29;20196;-85
2021/04/03 08:38:23;;;;;;;11.50;6.93;;;7.70;99.90;;;;;;4942458;29;20192;-87
2021/04/03 08:40:52;;;;;;;17.35;7.68;;;7.90;99.90;;;;;;4941626;29;20235;-83
2021/04/03 08:43:24;;;;;;;24.02;8.98;;;7.90;99.90;;;;;;4958824;29;20183;-84
2021/04/03 08:45:52;;;;;;;19.90;10.05;;;7.90;99.90;;;;;;4960790;29;20188;-84
2021/04/03 08:48:19;;;;;;;21.05;8.45;;;7.90;99.90;;;;;;4939970;29;20218;-84
2021/04/03 08:50:48;;;;;;;20.48;7.65;;;8.00;99.90;;;;;;4938968;29;20188;-83
2021/04/03 08:53:14;;;;;;;27.40;9.77;;;9.50;99.90;;;;;;4937196;29;20710;-85
2021/04/03 08:55:41;;;;;;;19.88;8.30;;;8.10;99.90;;;;;;4935425;29;20200;-85
2021/04/03 08:58:08;;;;;;;17.08;8.00;;;8.30;99.90;;;;;;4935506;29;20200;-84
2021/04/03 09:00:35;;;;;;;27.50;11.90;;;8.40;99.90;;;;;;4933323;29;20602;-84
2021/04/03 09:03:02;;;;;;;25.67;10.40;;;8.50;99.90;;;;;;4919826;29;20201;-85
2021/04/03 09:05:30;;;;;;;16.05;9.45;;;8.60;99.90;;;;;;4936766;29;20227;-84
2021/04/03 09:07:56;;;;;;;14.35;8.80;;;8.70;99.90;;;;;;4939200;29;20214;-85
2021/04/03 09:10:24;;;;;;;20.50;9.30;;;8.80;99.90;;;;;;4939133;29;20200;-85
2021/04/03 09:12:51;;;;;;;15.38;7.97;;;9.10;99.90;;;;;;4941433;29;20220;-88
2021/04/03 09:15:26;;;;;;;24.70;10.60;;;9.30;99.90;;;;;;4938426;29;20294;-87
2021/04/03 09:17:55;;;;;;;11.40;7.47;;;9.40;99.90;;;;;;4930253;29;20204;-87
2021/04/03 09:20:23;;;;;;;21.33;10.63;;;9.60;99.90;;;;;;4938015;29;20224;-87
2021/04/03 09:22:53;;;;;;;19.05;9.77;;;9.60;99.90;;;;;;4939277;29;20195;-88
2021/04/03 09:25:20;;;;;;;15.75;8.70;;;11.50;99.90;;;;;;4937242;29;20185;-87
2021/04/03 09:27:58;;;;;;;17.88;9.93;;;9.90;99.90;;;;;;4938362;29;20188;-87
2021/04/03 09:30:35;;;;;;;18.10;10.02;;;9.90;99.90;;;;;;4920986;29;20220;-87
2021/04/03 09:33:15;;;;;;;21.85;10.82;;;9.60;99.90;;;;;;4928005;29;20750;-86
2021/04/03 09:35:42;;;;;;;20.80;9.82;;;9.70;99.90;;;;;;4938903;29;20282;-88
2021/04/03 09:38:09;;;;;;;22.13;10.25;;;9.80;99.90;;;;;;4936839;29;20204;-88
2021/04/03 09:40:37;;;;;;;20.67;10.98;;;9.40;99.90;;;;;;4938437;29;20216;-87
2021/04/03 09:43:04;;;;;;;16.63;8.75;;;9.50;99.90;;;;;;4937709;29;20196;-88
2021/04/03 09:45:30;;;;;;;23.65;10.63;;;9.40;99.90;;;;;;4945937;29;20671;-88
2021/04/03 09:47:57;;;;;;;25.40;9.38;;;9.40;99.90;;;;;;4949618;29;20227;-87
2021/04/03 09:50:24;;;;;;;14.95;9.00;;;9.50;99.90;;;;;;4954170;29;20256;-88
2021/04/03 09:52:51;;;;;;;16.48;9.18;;;10.20;99.90;;;;;;4952497;29;20227;-88
2021/04/03 09:55:19;;;;;;;17.27;9.77;;;9.50;99.90;;;;;;4933967;29;20201;-88
2021/04/03 09:57:45;;;;;;;26.95;9.77;;;10.60;99.90;;;;;;4945311;29;20189;-88
2021/04/03 10:00:13;;;;;;;27.55;8.75;;;9.90;99.90;;;;;;4937051;29;20196;-86
2021/04/03 10:02:39;;;;;;;18.85;8.07;;;10.00;99.90;;;;;;4933400;29;20180;-86
2021/04/03 10:05:07;;;;;;;23.02;11.13;;;10.10;99.90;;;;;;4927708;29;20231;-87
2021/04/03 10:07:33;;;;;;;22.58;9.45;;;10.30;99.90;;;;;;4933872;29;20199;-86
2021/04/03 10:09:59;;;;;;;20.73;8.38;;;10.80;99.90;;;;;;4938100;29;20202;-85
2021/04/03 10:12:26;;;;;;;19.52;9.15;;;10.50;99.90;;;;;;4937363;29;20196;-87
2021/04/03 10:14:53;;;;;;;13.00;7.70;;;11.90;99.90;;;;;;4937939;29;20678;-86
2021/04/03 10:17:19;;;;;;;15.95;8.68;;;10.40;99.90;;;;;;4937371;29;20726;-85
2021/04/03 10:19:45;;;;;;;18.70;8.48;;;10.30;99.90;;;;;;4932385;29;20181;-86
2021/04/03 10:22:12;;;;;;;17.40;10.23;;;10.30;99.90;;;;;;4928252;29;20188;-86
2021/04/03 10:24:38;;;;;;;13.90;7.18;;;10.50;99.90;;;;;;4938245;29;20199;-86
2021/04/03 10:27:06;;;;;;;17.67;7.60;;;10.90;99.90;;;;;;4938145;29;20192;-86
2021/04/03 10:29:33;;;;;;;19.77;8.43;;;11.40;99.90;;;;;;4937594;29;20197;-85
2021/04/03 10:31:59;;;;;;;19.50;10.57;;;11.70;99.90;;;;;;4937262;29;20184;-85
2021/04/03 10:34:25;;;;;;;16.90;10.32;;;12.20;99.90;;;;;;4937626;29;20220;-85
2021/04/03 10:36:52;;;;;;;23.80;9.73;;;12.60;99.90;;;;;;4937270;29;20185;-84
2021/04/03 10:39:18;;;;;;;15.85;7.10;;;12.40;99.90;;;;;;4940185;29;20200;-84
2021/04/03 10:41:44;;;;;;;17.45;7.45;;;11.80;99.90;;;;;;4937764;29;20231;-85
2021/04/03 10:44:10;;;;;;;18.00;7.85;;;11.30;99.90;;;;;;4937614;29;20270;-84
2021/04/03 10:46:38;;;;;;;13.27;6.97;;;11.00;99.90;;;;;;4937346;29;20195;-84
2021/04/03 10:49:04;;;;;;;15.52;7.65;;;11.50;99.90;;;;;;4934372;29;20188;-85
2021/04/03 10:51:30;;;;;;;17.48;10.82;;;11.20;99.90;;;;;;4936891;29;20553;-83
2021/04/03 10:53:56;;;;;;;19.55;8.57;;;10.60;99.90;;;;;;4937569;29;20220;-83
2021/04/03 10:56:23;;;;;;;17.10;7.35;;;10.80;99.90;;;;;;4937806;29;20192;-84
2021/04/03 10:58:49;;;;;;;17.42;7.75;;;11.10;99.90;;;;;;4923936;29;20211;-84
2021/04/03 11:01:15;;;;;;;13.15;8.63;;;11.50;99.90;;;;;;4921353;29;20229;-84
2021/04/03 11:03:43;;;;;;;15.05;8.70;;;11.90;99.90;;;;;;4926468;29;20186;-83
2021/04/03 11:06:10;;;;;;;17.58;10.20;;;12.00;99.90;;;;;;4921428;29;20228;-84
2021/04/03 11:08:36;;;;;;;16.70;8.45;;;12.10;99.90;;;;;;4938150;29;20202;-84
2021/04/03 11:11:03;;;;;;;13.43;8.23;;;11.70;99.90;;;;;;4937007;29;20282;-84
2021/04/03 11:13:29;;;;;;;16.90;8.13;;;11.80;99.90;;;;;;4927591;29;20263;-84
2021/04/03 11:15:56;;;;;;;15.57;8.23;;;12.10;99.90;;;;;;4925765;29;20193;-84
2021/04/03 11:18:22;;;;;;;11.95;7.82;;;11.50;99.90;;;;;;4936596;29;20196;-85
2021/04/03 11:20:49;;;;;;;16.27;9.48;;;11.20;99.90;;;;;;4931046;28;20188;-85
2021/04/03 11:23:15;;;;;;;17.90;10.18;;;10.90;99.90;;;;;;4935426;29;20195;-87
2021/04/03 11:25:44;;;;;;;15.32;8.23;;;11.60;99.90;;;;;;4937274;29;20231;-85
2021/04/03 11:28:10;;;;;;;17.90;7.70;;;11.40;99.90;;;;;;4941150;29;20284;-86
2021/04/03 11:30:37;;;;;;;17.77;8.13;;;11.90;99.90;;;;;;4946108;29;20327;-83
2021/04/03 11:33:04;;;;;;;12.40;7.57;;;12.40;99.90;;;;;;4947245;29;20235;-83
2021/04/03 11:35:32;;;;;;;20.70;10.57;;;12.90;99.90;;;;;;4949782;29;20189;-83
2021/04/03 11:37:59;;;;;;;21.30;9.38;;;13.10;99.90;;;;;;4949760;29;20200;-85
2021/04/03 11:40:26;;;;;;;17.15;8.55;;;13.00;99.90;;;;;;4953303;29;20227;-84
2021/04/03 11:42:55;;;;;;;17.70;8.65;;;12.80;99.90;;;;;;4954822;29;20283;-85
2021/04/03 11:45:23;;;;;;;14.68;7.88;;;12.60;99.90;;;;;;4960014;29;20184;-86
2021/04/03 11:47:49;;;;;;;15.50;7.93;;;12.70;99.90;;;;;;4955089;29;20196;-84
2021/04/03 11:50:16;;;;;;;12.55;7.45;;;13.10;99.90;;;;;;4955783;29;20192;-85
2021/04/03 11:52:44;;;;;;;13.68;7.72;;;14.00;99.90;;;;;;4957817;29;20265;-85
2021/04/03 11:55:14;;;;;;;18.75;8.40;;;14.40;99.90;;;;;;4959089;29;20251;-85
2021/04/03 11:57:40;;;;;;;16.27;9.38;;;15.00;99.90;;;;;;4960438;29;20252;-85
2021/04/03 12:00:08;;;;;;;8.93;5.28;;;14.80;99.90;;;;;;4960989;29;20182;-86
2021/04/03 12:02:35;;;;;;;11.02;6.82;;;14.90;99.90;;;;;;4962181;29;20202;-85
2021/04/03 12:05:03;;;;;;;11.75;5.68;;;14.50;99.90;;;;;;4960716;29;20230;-85
2021/04/03 12:07:29;;;;;;;17.52;7.65;;;14.40;99.90;;;;;;4960315;29;20224;-84
2021/04/03 12:09:55;;;;;;;10.90;7.28;;;15.10;99.90;;;;;;4959033;29;20256;-85
2021/04/03 12:12:22;;;;;;;15.70;6.57;;;16.30;99.90;;;;;;4953821;29;20244;-85
2021/04/03 12:14:49;;;;;;;14.15;7.30;;;16.90;99.90;;;;;;4960245;29;20311;-85
2021/04/03 12:17:15;;;;;;;12.88;7.30;;;17.20;99.90;;;;;;4954459;29;20272;-84
2021/04/03 12:19:41;;;;;;;12.77;7.05;;;16.40;99.90;;;;;;4955712;29;20199;-85
2021/04/03 12:22:07;;;;;;;13.00;7.43;;;15.40;99.90;;;;;;4958139;29;20209;-84
2021/04/03 12:24:34;;;;;;;12.18;7.70;;;15.50;99.90;;;;;;4960216;29;20219;-84
2021/04/03 12:27:00;;;;;;;14.68;7.93;;;15.60;99.90;;;;;;4961113;29;20290;-85
2021/04/03 12:29:27;;;;;;;16.83;8.07;;;15.80;99.90;;;;;;4957392;29;20196;-85
2021/04/03 12:31:53;;;;;;;16.52;7.00;;;15.30;99.90;;;;;;4953146;29;20196;-85
2021/04/03 12:34:20;;;;;;;11.18;7.00;;;14.90;99.90;;;;;;4956413;29;20229;-84
2021/04/03 12:36:46;;;;;;;20.20;7.35;;;14.90;99.90;;;;;;4954137;29;20199;-85
2021/04/03 12:39:12;;;;;;;8.93;5.30;;;14.70;99.90;;;;;;4946732;29;20198;-85
2021/04/03 12:41:39;;;;;;;10.43;5.22;;;14.30;99.90;;;;;;4951347;29;20205;-85
2021/04/03 12:44:05;;;;;;;14.43;6.25;;;14.50;99.90;;;;;;4954003;29;20269;-84
2021/04/03 12:46:33;;;;;;;10.43;5.15;;;14.70;99.90;;;;;;4957996;29;20219;-84
2021/04/03 12:48:59;;;;;;;12.32;5.15;;;14.80;99.90;;;;;;4958642;29;20278;-85
2021/04/03 12:51:26;;;;;;;13.75;5.63;;;14.90;99.90;;;;;;4956864;29;20237;-85